createdAt,value
2024-01-06T00:02:04.807Z,89331.92
2024-01-06T00:10:29.250Z,89333.05
2024-01-06T00:18:58.080Z,89326.85
2024-01-06T00:27:23.270Z,89336.69
2024-01-06T00:35:48.784Z,89341.14
2024-01-06T00:44:13.515Z,89348.66
2024-01-06T00:52:41.011Z,89353.83
2024-01-06T01:01:07.026Z,89367.96
2024-01-06T01:09:31.667Z,89368.94
2024-01-06T01:17:55.582Z,89374.01
2024-01-06T01:26:19.801Z,89378.61
2024-01-06T01:34:44.221Z,89390.42
2024-01-06T01:43:16.903Z,89379.27
2024-01-06T01:51:44.634Z,89363.75
2024-01-06T02:00:16.386Z,89343.68
2024-01-06T02:08:41.017Z,89334.42
2024-01-06T02:17:06.783Z,89323.00
2024-01-06T02:25:31.654Z,89316.35
2024-01-06T02:33:56.982Z,89299.10
2024-01-06T02:42:45.807Z,89288.23
2024-01-06T02:51:11.965Z,89278.68
2024-01-06T02:59:37.246Z,89274.83
2024-01-06T03:08:02.226Z,89269.31
2024-01-06T03:16:26.801Z,89267.89
2024-01-06T03:24:51.965Z,89251.86
2024-01-06T03:33:17.681Z,89250.34
2024-01-06T03:41:43.860Z,89249.45
2024-01-06T03:50:09.082Z,89252.54
2024-01-06T03:58:34.595Z,89254.68
2024-01-06T04:06:58.873Z,89260.98
2024-01-06T04:15:23.686Z,89254.98
2024-01-06T04:23:48.946Z,89260.63
2024-01-06T04:32:12.470Z,89252.38
2024-01-06T04:40:36.590Z,89253.50
2024-01-06T04:49:01.759Z,89250.34
2024-01-06T04:57:26.417Z,89249.40
2024-01-06T05:05:51.119Z,89259.70
2024-01-06T05:14:14.542Z,89260.30
2024-01-06T05:22:38.790Z,89271.98
2024-01-06T05:31:04.699Z,89272.28
2024-01-06T05:39:33.831Z,89275.80
2024-01-06T05:47:57.342Z,89278.68
2024-01-06T05:56:27.415Z,89274.95
2024-01-06T06:04:54.423Z,89279.18
2024-01-06T06:13:21.289Z,89277.19
2024-01-06T06:21:47.643Z,89275.40
2024-01-06T06:30:15.063Z,89280.66
2024-01-06T06:38:40.956Z,89276.63
2024-01-06T06:47:05.483Z,89281.99
2024-01-06T06:55:29.483Z,89275.86
2024-01-06T07:03:53.711Z,89279.73
2024-01-06T07:12:20.723Z,89281.98
2024-01-06T07:20:45.217Z,89286.60
2024-01-06T07:29:12.519Z,89313.73
2024-01-06T07:37:36.734Z,89348.07
2024-01-06T07:46:05.020Z,89377.88
2024-01-06T07:54:30.671Z,89411.01
2024-01-06T08:02:57.479Z,89428.06
2024-01-06T08:11:23.560Z,89445.23
2024-01-06T08:19:49.489Z,89453.27
2024-01-06T08:28:15.994Z,89475.61
2024-01-06T08:36:42.530Z,89486.73
2024-01-06T08:45:07.078Z,89508.97
2024-01-06T08:53:33.482Z,89552.80
2024-01-06T09:01:58.283Z,89583.86
2024-01-06T09:10:23.216Z,89602.78
2024-01-06T09:18:49.226Z,89630.06
2024-01-06T09:27:14.221Z,89637.19
2024-01-06T09:35:40.790Z,89642.06
2024-01-06T09:44:05.942Z,89624.02
2024-01-06T09:52:33.762Z,89635.50
2024-01-06T10:01:00.761Z,89640.22
2024-01-06T10:09:29.525Z,89664.55
2024-01-06T10:17:55.922Z,89666.13
2024-01-06T10:26:21.724Z,89659.71
2024-01-06T10:34:47.829Z,89614.77
2024-01-06T10:43:13.060Z,89598.08
2024-01-06T10:51:39.226Z,89619.66
2024-01-06T11:00:06.858Z,89646.23
2024-01-06T11:08:34.954Z,89652.70
2024-01-06T11:16:59.099Z,89666.73
2024-01-06T11:25:24.299Z,89660.48
2024-01-06T11:33:52.496Z,89660.08
2024-01-06T11:42:17.873Z,89620.98
2024-01-06T11:50:43.767Z,89608.11
2024-01-06T11:59:07.862Z,89604.38
2024-01-06T12:07:35.541Z,89598.42
2024-01-06T12:16:02.643Z,89602.11
2024-01-06T12:24:29.664Z,89599.91
2024-01-06T12:32:54.020Z,89587.55
2024-01-06T12:41:20.010Z,89571.10
2024-01-06T12:49:47.487Z,89583.73
2024-01-06T12:58:13.417Z,89572.70
2024-01-06T13:06:38.550Z,89572.12
2024-01-06T13:15:02.807Z,89537.73
2024-01-06T13:23:30.240Z,89492.57
2024-01-06T13:31:56.270Z,89464.48
2024-01-06T13:40:21.205Z,89468.32
2024-01-06T13:48:48.483Z,89461.66
2024-01-06T13:57:12.429Z,89462.22
2024-01-06T14:05:39.727Z,89436.51
2024-01-06T14:14:04.061Z,89409.92
2024-01-06T14:22:27.744Z,89391.86
2024-01-06T14:30:55.282Z,89379.77
2024-01-06T14:39:23.113Z,89362.37
2024-01-06T14:47:49.851Z,89343.23
2024-01-06T14:56:15.654Z,89342.55
2024-01-06T15:04:40.292Z,89321.45
2024-01-06T15:13:06.291Z,89296.67
2024-01-06T15:21:34.844Z,89286.27
2024-01-06T15:29:59.255Z,89283.05
2024-01-06T15:38:24.202Z,89282.05
2024-01-06T15:46:49.252Z,89272.78
2024-01-06T15:55:13.718Z,89256.80
2024-01-06T16:03:38.444Z,89249.54
2024-01-06T16:12:05.417Z,89235.27
2024-01-06T16:20:30.254Z,89226.74
2024-01-06T16:28:54.345Z,89211.39
2024-01-06T16:37:18.940Z,89207.34
2024-01-06T16:45:45.851Z,89210.21
2024-01-06T16:54:10.116Z,89205.40
2024-01-06T17:02:35.776Z,89202.29
2024-01-06T17:10:59.992Z,89189.17
2024-01-06T17:19:23.705Z,89186.06
2024-01-06T17:27:49.234Z,89183.65
2024-01-06T17:36:15.398Z,89172.61
2024-01-06T17:44:44.293Z,89155.84
2024-01-06T17:53:08.471Z,89133.84
2024-01-06T18:01:33.341Z,89116.67
2024-01-06T18:09:57.978Z,89104.10
2024-01-06T18:18:22.564Z,89083.55
2024-01-06T18:26:49.383Z,89072.16
2024-01-06T18:35:15.535Z,89044.20
2024-01-06T18:43:41.122Z,89027.52
2024-01-06T18:52:07.221Z,89013.60
2024-01-06T19:00:32.779Z,89001.03
2024-01-06T19:08:57.504Z,88989.34
2024-01-06T19:17:25.678Z,88971.11
2024-01-06T19:25:53.190Z,88973.16
2024-01-06T19:34:18.431Z,88964.98
2024-01-06T19:42:45.536Z,88949.77
2024-01-06T19:51:09.614Z,88938.38
2024-01-06T19:59:33.929Z,88931.89
2024-01-06T20:07:59.234Z,88926.49
2024-01-06T20:16:23.682Z,88920.56
2024-01-06T20:24:47.124Z,88904.42
2024-01-06T20:33:11.683Z,88890.33
2024-01-06T20:41:36.950Z,88871.20
2024-01-06T20:50:02.278Z,88854.22
2024-01-06T20:58:27.492Z,88821.51
2024-01-06T21:06:53.744Z,88796.91
2024-01-06T21:15:19.345Z,88772.64
2024-01-06T21:23:48.561Z,88762.59
2024-01-06T21:32:18.911Z,88742.39
2024-01-06T21:40:48.140Z,88721.17
2024-01-06T21:49:12.088Z,88712.21
2024-01-06T21:57:36.739Z,88678.16
2024-01-06T22:06:02.468Z,88657.82
2024-01-06T22:14:25.649Z,88640.08
2024-01-06T22:22:51.609Z,88630.92
2024-01-06T22:31:18.643Z,88609.67
2024-01-06T22:39:53.793Z,88591.73
2024-01-06T22:48:19.097Z,88565.27
2024-01-06T22:56:45.023Z,88549.80
2024-01-06T23:05:10.013Z,88528.61
2024-01-06T23:13:34.655Z,88531.95
2024-01-06T23:22:00.252Z,88516.14
2024-01-06T23:30:24.829Z,88499.64
2024-01-06T23:38:48.899Z,88472.82
2024-01-06T23:47:16.422Z,88444.88
2024-01-06T23:55:45.322Z,88424.91
